Observation data for Saint Lawrence on 01/17/2019      Previous  Date  Next       Current Mesonet Observations  Soil Data  Daily Summary Page  Observations in Plain Language
KST1 170600Z 22009KT 08/08 A3015 RMK A01 T00800078  RH  100%=      5-min Rain = 0
KST1 170605Z 23009KT 08/08 A3015 RMK A01 T00810079  RH  100%=      5-min Rain = 0
KST1 170610Z 23009KT 08/08 A3015 RMK A01 T00810079  RH  100%=      5-min Rain = 0
KST1 170615Z 23009KT 08/08 A3015 RMK A01 T00800078  RH  100%=      5-min Rain = 0
KST1 170620Z 23009KT 08/08 A3014 RMK A01 T00780076  RH  100%=      5-min Rain = 0
KST1 170625Z 24008KT 08/07 A3014 RMK A01 T00760074  RH  100%=      5-min Rain = 0
KST1 170630Z 24008KT 07/07 A3014 RMK A01 T00730071  RH  100%=      5-min Rain = 0
KST1 170635Z 25009KT 07/07 A3014 RMK A01 T00730071  RH  100%=      5-min Rain = 0
KST1 170640Z 25009KT 07/07 A3014 RMK A01 T00740072  RH  100%=      5-min Rain = 0
KST1 170645Z 24009KT 07/07 A3014 RMK A01 T00730071  RH  100%=      5-min Rain = 0
KST1 170650Z 24009KT 07/07 A3014 RMK A01 T00720069  RH  100%=      5-min Rain = 0
KST1 170655Z 24010KT 07/07 A3014 RMK A01 T00720070  RH  100%=      5-min Rain = 0
KST1 170700Z 24009KT 07/07 A3014 RMK A01 T00730071  RH  100%=      5-min Rain = 0
KST1 170705Z 24010KT 07/07 A3014 RMK A01 T00720070  RH  100%=      5-min Rain = 0
KST1 170710Z 24009KT 07/07 A3014 RMK A01 T00710069  RH  100%=      5-min Rain = 0
KST1 170715Z 24009KT 07/07 A3013 RMK A01 T00690067  RH  100%=      5-min Rain = 0
KST1 170720Z 24009KT 07/07 A3013 RMK A01 T00670065  RH  100%=      5-min Rain = 0
KST1 170725Z 25009KT 07/06 A3013 RMK A01 T00660064  RH  100%=      5-min Rain = 0
KST1 170730Z 25009KT 07/06 A3013 RMK A01 T00660064  RH  100%=      5-min Rain = 0
KST1 170735Z 25009KT 07/06 A3013 RMK A01 T00660063  RH  100%=      5-min Rain = 0
KST1 170740Z 25008KT 07/06 A3013 RMK A01 T00660062  RH  099%=      5-min Rain = 0
KST1 170745Z 25008KT 06/06 A3013 RMK A01 T00640059  RH  098%=      5-min Rain = 0
KST1 170750Z 25007KT 06/06 A3013 RMK A01 T00620055  RH  097%=      5-min Rain = 0
KST1 170755Z 25007KT 06/05 A3014 RMK A01 T00590053  RH  097%=      5-min Rain = 0
KST1 170800Z 25007KT 06/05 A3014 RMK A01 T00580052  RH  097%=      5-min Rain = 0
KST1 170805Z 25006KT 06/05 A3014 RMK A01 T00560049  RH  097%=      5-min Rain = 0
KST1 170810Z 23006KT 06/05 A3014 RMK A01 T00560050  RH  098%=      5-min Rain = 0
KST1 170815Z 22007KT 06/05 A3015 RMK A01 T00600054  RH  097%=      5-min Rain = 0
KST1 170820Z 24007KT 06/05 A3015 RMK A01 T00580051  RH  096%=      5-min Rain = 0
KST1 170825Z 23005KT 06/05 A3015 RMK A01 T00550047  RH  096%=      5-min Rain = 0
KST1 170830Z 21004KT 06/05 A3015 RMK A01 T00570051  RH  097%=      5-min Rain = 0
KST1 170835Z 20004KT 06/05 A3016 RMK A01 T00580049  RH  096%=      5-min Rain = 0
KST1 170840Z 21003KT 05/05 A3016 RMK A01 T00530045  RH  096%=      5-min Rain = 0
KST1 170845Z 24003KT 05/05 A3015 RMK A01 T00520045  RH  096%=      5-min Rain = 0
KST1 170850Z 25005KT 06/05 A3015 RMK A01 T00560049  RH  097%=      5-min Rain = 0
KST1 170855Z 25005KT 06/05 A3015 RMK A01 T00600050  RH  095%=      5-min Rain = 0
KST1 170900Z 26005KT 05/04 A3016 RMK A01 T00510039  RH  093%=      5-min Rain = 0
KST1 170905Z 27005KT 05/04 A3016 RMK A01 T00540044  RH  095%=      5-min Rain = 0
KST1 170910Z 27003KT 05/04 A3016 RMK A01 T00490036  RH  093%=      5-min Rain = 0
KST1 170915Z 25003KT 05/04 A3016 RMK A01 T00470036  RH  094%=      5-min Rain = 0
KST1 170920Z 23003KT 05/04 A3017 RMK A01 T00500038  RH  093%=      5-min Rain = 0
KST1 170925Z 24003KT 04/03 A3017 RMK A01 T00430029  RH  092%=      5-min Rain = 0
KST1 170930Z 24003KT 04/02 A3017 RMK A01 T00350023  RH  093%=      5-min Rain = 0
KST1 170935Z 24004KT 04/04 A3017 RMK A01 T00430036  RH  096%=      5-min Rain = 0
KST1 170940Z 25004KT 05/04 A3017 RMK A01 T00460037  RH  095%=      5-min Rain = 0
KST1 170945Z 26004KT 05/04 A3017 RMK A01 T00490037  RH  093%=      5-min Rain = 0
KST1 170950Z 26004KT 05/03 A3017 RMK A01 T00540034  RH  088%=      5-min Rain = 0
KST1 170955Z 26004KT 05/03 A3017 RMK A01 T00500027  RH  086%=      5-min Rain = 0
KST1 171000Z 26005KT 05/03 A3017 RMK A01 T00480029  RH  089%=      5-min Rain = 0
KST1 171005Z 26006KT 05/03 A3017 RMK A01 T00520032  RH  088%=      5-min Rain = 0
KST1 171010Z 27006KT 05/03 A3017 RMK A01 T00500029  RH  087%=      5-min Rain = 0
KST1 171015Z 27006KT 04/02 A3017 RMK A01 T00400019  RH  087%=      5-min Rain = 0
KST1 171020Z 27005KT 03/02 A3017 RMK A01 T00320015  RH  089%=      5-min Rain = 0
KST1 171025Z 28004KT 04/02 A3017 RMK A01 T00380023  RH  091%=      5-min Rain = 0
KST1 171030Z 27003KT 05/03 A3017 RMK A01 T00450025  RH  088%=      5-min Rain = 0
KST1 171035Z 26004KT 05/02 A3017 RMK A01 T00480022  RH  084%=      5-min Rain = 0
KST1 171040Z 21003KT 05/02 A3018 RMK A01 T00470019  RH  083%=      5-min Rain = 0
KST1 171045Z 19005KT 03/01 A3018 RMK A01 T00330013  RH  088%=      5-min Rain = 0
KST1 171050Z 22005KT 04/03 A3017 RMK A01 T00410026  RH  091%=      5-min Rain = 0
KST1 171055Z 23006KT 05/02 A3017 RMK A01 T00450022  RH  086%=      5-min Rain = 0
KST1 171100Z 23007KT 04/02 A3017 RMK A01 T00430021  RH  087%=      5-min Rain = 0
KST1 171105Z 22005KT 04/02 A3017 RMK A01 T00410021  RH  088%=      5-min Rain = 0
KST1 171110Z 21004KT 05/03 A3017 RMK A01 T00460025  RH  087%=      5-min Rain = 0
KST1 171115Z 21003KT 04/02 A3017 RMK A01 T00400018  RH  087%=      5-min Rain = 0
KST1 171120Z 20004KT 04/02 A3017 RMK A01 T00350016  RH  089%=      5-min Rain = 0
KST1 171125Z 19005KT 03/01 A3017 RMK A01 T00270010  RH  090%=      5-min Rain = 0
KST1 171130Z 20006KT 03/02 A3017 RMK A01 T00290017  RH  093%=      5-min Rain = 0
KST1 171135Z 20007KT 04/03 A3017 RMK A01 T00430032  RH  094%=      5-min Rain = 0
KST1 171140Z 20008KT 04/03 A3017 RMK A01 T00440028  RH  090%=      5-min Rain = 0
KST1 171145Z 21007KT 04/03 A3017 RMK A01 T00440028  RH  091%=      5-min Rain = 0
KST1 171150Z 21006KT 04/03 A3018 RMK A01 T00390025  RH  091%=      5-min Rain = 0
KST1 171155Z 22008KT 04/02 A3018 RMK A01 T00350023  RH  093%=      5-min Rain = 0
KST1 171200Z 23008KT 04/03 A3018 RMK A01 T00380028  RH  094%=      5-min Rain = 0
KST1 171205Z 23008KT 04/03 A3018 RMK A01 T00410029  RH  094%=      5-min Rain = 0
KST1 171210Z 23007KT 04/03 A3018 RMK A01 T00410028  RH  092%=      5-min Rain = 0
KST1 171215Z 24006KT 04/03 A3018 RMK A01 T00420027  RH  092%=      5-min Rain = 0
KST1 171220Z 24006KT 04/03 A3018 RMK A01 T00400026  RH  091%=      5-min Rain = 0
KST1 171225Z 24006KT 04/02 A3018 RMK A01 T00390024  RH  091%=      5-min Rain = 0
KST1 171230Z 24006KT 04/02 A3018 RMK A01 T00380024  RH  091%=      5-min Rain = 0
KST1 171235Z 23007KT 04/02 A3018 RMK A01 T00360022  RH  092%=      5-min Rain = 0
KST1 171240Z 24007KT 03/02 A3018 RMK A01 T00340021  RH  092%=      5-min Rain = 0
KST1 171245Z 23007KT 03/02 A3018 RMK A01 T00330020  RH  093%=      5-min Rain = 0
KST1 171250Z 23008KT 03/02 A3018 RMK A01 T00300019  RH  093%=      5-min Rain = 0
KST1 171255Z 23008KT 03/02 A3018 RMK A01 T00300020  RH  094%=      5-min Rain = 0
KST1 171300Z 23008KT 03/02 A3018 RMK A01 T00280018  RH  095%=      5-min Rain = 0
KST1 171305Z 23008KT 03/02 A3019 RMK A01 T00260017  RH  095%=      5-min Rain = 0
KST1 171310Z 24008KT 03/02 A3019 RMK A01 T00260017  RH  095%=      5-min Rain = 0
KST1 171315Z 24008KT 03/02 A3018 RMK A01 T00260017  RH  095%=      5-min Rain = 0
KST1 171320Z 25008KT 03/02 A3018 RMK A01 T00280019  RH  095%=      5-min Rain = 0
KST1 171325Z 25008KT 03/02 A3018 RMK A01 T00280018  RH  094%=      5-min Rain = 0
KST1 171330Z 25009KT 03/02 A3018 RMK A01 T00270017  RH  094%=      5-min Rain = 0
KST1 171335Z 26008KT 03/02 A3019 RMK A01 T00280017  RH  094%=      5-min Rain = 0
KST1 171340Z 27007KT 03/01 A3019 RMK A01 T00260014  RH  093%=      5-min Rain = 0
KST1 171345Z 27006KT 02/01 A3019 RMK A01 T00230011  RH  093%=      5-min Rain = 0
KST1 171350Z 26008KT 03/01 A3019 RMK A01 T00260013  RH  092%=      5-min Rain = 0
KST1 171355Z 26007KT 03/01 A3019 RMK A01 T00250011  RH  092%=      5-min Rain = 0
KST1 171400Z 27007KT 03/01 A3019 RMK A01 T00250012  RH  092%=      5-min Rain = 0
KST1 171405Z 27007KT 03/01 A302 RMK A01 T00300014  RH  090%=      5-min Rain = 0
KST1 171410Z 27007KT 03/02 A302 RMK A01 T00340015  RH  089%=      5-min Rain = 0
KST1 171415Z 26007KT 04/02 A302 RMK A01 T00380017  RH  088%=      5-min Rain = 0
KST1 171420Z 27007KT 04/02 A302 RMK A01 T00400019  RH  087%=      5-min Rain = 0
KST1 171425Z 28007KT 05/02 A3021 RMK A01 T00450022  RH  086%=      5-min Rain = 0
KST1 171430Z 28008KT 05/02 A3021 RMK A01 T00530023  RH  082%=      5-min Rain = 0
KST1 171435Z 28007KT 06/02 A3021 RMK A01 T00580023  RH  079%=      5-min Rain = 0
KST1 171440Z 28006KT 06/03 A3021 RMK A01 T00600026  RH  080%=      5-min Rain = 0
KST1 171445Z 27006KT 07/03 A3021 RMK A01 T00650027  RH  078%=      5-min Rain = 0
KST1 171450Z 27006KT 07/03 A3021 RMK A01 T00690029  RH  077%=      5-min Rain = 0
KST1 171455Z 27005KT 07/03 A3022 RMK A01 T00700028  RH  076%=      5-min Rain = 0
KST1 171500Z 27006KT 07/03 A3021 RMK A01 T00680026  RH  076%=      5-min Rain = 0
KST1 171505Z 27007KT 07/03 A3021 RMK A01 T00700029  RH  076%=      5-min Rain = 0
KST1 171510Z 28004KT 08/04 A3022 RMK A01 T00750036  RH  078%=      5-min Rain = 0
KST1 171515Z 28005KT 08/03 A3022 RMK A01 T00810034  RH  073%=      5-min Rain = 0
KST1 171520Z 28006KT 08/03 A3022 RMK A01 T00840033  RH  071%=      5-min Rain = 0
KST1 171525Z 29005KT 09/03 A3022 RMK A01 T00880033  RH  069%=      5-min Rain = 0
KST1 171530Z 29006KT 09/04 A3023 RMK A01 T00900037  RH  070%=      5-min Rain = 0
KST1 171535Z 28006KT 09/04 A3022 RMK A01 T00930038  RH  069%=      5-min Rain = 0
KST1 171540Z 29007KT 10/04 A3022 RMK A01 T00970036  RH  067%=      5-min Rain = 0
KST1 171545Z 29006KT 10/04 A3022 RMK A01 T01000037  RH  066%=      5-min Rain = 0
KST1 171550Z 29005KT 10/04 A3023 RMK A01 T01030040  RH  066%=      5-min Rain = 0
KST1 171555Z 29006KT 11/04 A3023 RMK A01 T01070043  RH  065%=      5-min Rain = 0
KST1 171600Z 29006KT 11/04 A3023 RMK A01 T01120038  RH  061%=      5-min Rain = 0
KST1 171605Z 30006KT 12/03 A3024 RMK A01 T01180034  RH  057%=      5-min Rain = 0
KST1 171610Z 30008KT 12/02 A3023 RMK A01 T01220022  RH  051%=      5-min Rain = 0
KST1 171615Z 30007KT 13/02 A3023 RMK A01 T01250022  RH  050%=      5-min Rain = 0
KST1 171620Z 30007KT 13/02 A3023 RMK A01 T01260022  RH  050%=      5-min Rain = 0
KST1 171625Z 30007KT 13/02 A3023 RMK A01 T01270022  RH  049%=      5-min Rain = 0
KST1 171630Z 31007KT 13/03 A3023 RMK A01 T01290026  RH  050%=      5-min Rain = 0
KST1 171635Z 31008KT 13/03 A3023 RMK A01 T01310025  RH  049%=      5-min Rain = 0
KST1 171640Z 32008KT 13/02 A3024 RMK A01 T01310024  RH  049%=      5-min Rain = 0
KST1 171645Z 32009KT 13/02 A3023 RMK A01 T01330022  RH  047%=      5-min Rain = 0
KST1 171650Z 33009KT 14/02 A3023 RMK A01 T01360022  RH  046%=      5-min Rain = 0
KST1 171655Z 31009KT 14/02 A3023 RMK A01 T01360020  RH  046%=      5-min Rain = 0
KST1 171700Z 32009KT 14/02 A3023 RMK A01 T01400021  RH  045%=      5-min Rain = 0
KST1 171705Z 33010KT 14/02 A3023 RMK A01 T01410018  RH  044%=      5-min Rain = 0
KST1 171710Z 33008KT 14/02 A3023 RMK A01 T01440021  RH  044%=      5-min Rain = 0
KST1 171715Z 33007KT 15/02 A3023 RMK A01 T01480022  RH  043%=      5-min Rain = 0
KST1 171720Z 32008KT 15/02 A3023 RMK A01 T01500022  RH  042%=      5-min Rain = 0
KST1 171725Z 33010KT 15/02 A3023 RMK A01 T01500016  RH  041%=      5-min Rain = 0
KST1 171730Z 34009KT 16/02 A3023 RMK A01 T01550020  RH  041%=      5-min Rain = 0
KST1 171735Z 32009KT 15/02 A3022 RMK A01 T01540017  RH  040%=      5-min Rain = 0
KST1 171740Z 33009KT 16/02 A3022 RMK A01 T01580016  RH  039%=      5-min Rain = 0
KST1 171745Z 33010KT 16/02 A3022 RMK A01 T01590015  RH  038%=      5-min Rain = 0
KST1 171750Z 34010KT 16/02 A3022 RMK A01 T01640015  RH  037%=      5-min Rain = 0
KST1 171755Z 33008KT 16/01 A3022 RMK A01 T01640014  RH  037%=      5-min Rain = 0
KST1 171800Z 31006KT 16/01 A3022 RMK A01 T01630014  RH  037%=      5-min Rain = 0
KST1 171805Z 33008KT 17/02 A3022 RMK A01 T01680017  RH  037%=      5-min Rain = 0
KST1 171810Z 31007KT 17/02 A3022 RMK A01 T01680017  RH  036%=      5-min Rain = 0
KST1 171815Z 31006KT 17/02 A3022 RMK A01 T01680015  RH  036%=      5-min Rain = 0
KST1 171820Z 30006KT 17/02 A3022 RMK A01 T01680015  RH  036%=      5-min Rain = 0
KST1 171825Z 30006KT 17/01 A3022 RMK A01 T01700013  RH  035%=      5-min Rain = 0
KST1 171830Z 30007KT 17/01 A3021 RMK A01 T01700008  RH  034%=      5-min Rain = 0
KST1 171835Z 31006KT 17/01 A3021 RMK A01 T01700005  RH  033%=      5-min Rain = 0
KST1 171840Z 32004G9KT 17/01 A302 RMK A01 T01730008  RH  033%=      5-min Rain = 0
KST1 171845Z 30006KT 18/01 A302 RMK A01 T01750010  RH  033%=      5-min Rain = 0
KST1 171850Z 30007KT 17/01 A302 RMK A01 T01740006  RH  032%=      5-min Rain = 0
KST1 171855Z 31004KT 17/01 A3019 RMK A01 T01740006  RH  033%=      5-min Rain = 0
KST1 171900Z 31005KT 18/01 A3019 RMK A01 T01780007  RH  032%=      5-min Rain = 0
KST1 171905Z 30004KT 18/01 A3019 RMK A01 T01770007  RH  032%=      5-min Rain = 0
KST1 171910Z 31005KT 18/01 A3018 RMK A01 T01790009  RH  032%=      5-min Rain = 0
KST1 171915Z 28004KT 18/01 A3018 RMK A01 T01790011  RH  033%=      5-min Rain = 0
KST1 171920Z 29006KT 18/01 A3017 RMK A01 T01790012  RH  033%=      5-min Rain = 0
KST1 171925Z 30003KT 18/01 A3017 RMK A01 T01790008  RH  032%=      5-min Rain = 0
KST1 171930Z 29004KT 18/01 A3016 RMK A01 T01820006  RH  031%=      5-min Rain = 0
KST1 171935Z 29003KT 18/01 A3016 RMK A01 T01810008  RH  032%=      5-min Rain = 0
KST1 171940Z 28004KT 18/01 A3016 RMK A01 T01820006  RH  031%=      5-min Rain = 0
KST1 171945Z 29005KT 19/01 A3015 RMK A01 T01850008  RH  031%=      5-min Rain = 0
KST1 171950Z 28004KT 19/01 A3014 RMK A01 T01870012  RH  031%=      5-min Rain = 0
KST1 171955Z 29004KT 19/01 A3014 RMK A01 T01930011  RH  030%=      5-min Rain = 0
KST1 172000Z 28005KT 19/01 A3013 RMK A01 T01900007  RH  030%=      5-min Rain = 0
KST1 172005Z 26006KT 19/00 A3013 RMK A01 T01890004  RH  029%=      5-min Rain = 0
KST1 172010Z 29007G12KT 19/00 A3014 RMK A01 T01930003  RH  028%=      5-min Rain = 0
KST1 172015Z 31005G11KT 19/00 A3014 RMK A01 T01930001  RH  028%=      5-min Rain = 0
KST1 172020Z 29006KT 19/00 A3014 RMK A01 T01930001  RH  028%=      5-min Rain = 0
KST1 172025Z 26005KT 19/00 A3014 RMK A01 T01940004  RH  028%=      5-min Rain = 0
KST1 172030Z 27007KT 20/00 A3014 RMK A01 T01970004  RH  028%=      5-min Rain = 0
KST1 172035Z 27007KT 20/00 A3014 RMK A01 T019800-0  RH  027%=      5-min Rain = 0
KST1 172040Z 25007KT 20/00 A3014 RMK A01 T01990002  RH  027%=      5-min Rain = 0
KST1 172045Z 26005KT 20/00 A3014 RMK A01 T01980001  RH  027%=      5-min Rain = 0
KST1 172050Z 25006KT 20/M00 A3014 RMK A01 T01991001  RH  026%=      5-min Rain = 0
KST1 172055Z 22005KT 20/M00 A3014 RMK A01 T02011001  RH  026%=      5-min Rain = 0
KST1 172100Z 23007KT 20/00 A3014 RMK A01 T020200-0  RH  026%=      5-min Rain = 0
KST1 172105Z 24008KT 20/00 A3013 RMK A01 T02040001  RH  026%=      5-min Rain = 0
KST1 172110Z 26006G11KT 20/00 A3013 RMK A01 T020200-0  RH  026%=      5-min Rain = 0
KST1 172115Z 24007KT 20/00 A3013 RMK A01 T02040002  RH  026%=      5-min Rain = 0
KST1 172120Z 23005KT 20/00 A3013 RMK A01 T02020002  RH  026%=      5-min Rain = 0
KST1 172125Z 23006KT 20/00 A3013 RMK A01 T02020002  RH  026%=      5-min Rain = 0
KST1 172130Z 25007KT 20/00 A3013 RMK A01 T02040003  RH  026%=      5-min Rain = 0
KST1 172135Z 25004KT 20/00 A3013 RMK A01 T02040003  RH  026%=      5-min Rain = 0
KST1 172140Z 22008KT 21/00 A3012 RMK A01 T02070003  RH  026%=      5-min Rain = 0
KST1 172145Z 23007KT 21/00 A3012 RMK A01 T02060003  RH  026%=      5-min Rain = 0
KST1 172150Z 23007KT 21/00 A3012 RMK A01 T02080003  RH  026%=      5-min Rain = 0
KST1 172155Z 22007G12KT 21/00 A3012 RMK A01 T02080002  RH  026%=      5-min Rain = 0
KST1 172200Z 24008KT 21/00 A3012 RMK A01 T02090002  RH  025%=      5-min Rain = 0
KST1 172205Z 23006KT 21/00 A3012 RMK A01 T02080004  RH  026%=      5-min Rain = 0
KST1 172210Z 24008KT 21/00 A3012 RMK A01 T02070004  RH  026%=      5-min Rain = 0
KST1 172215Z 22009KT 21/00 A3012 RMK A01 T02070003  RH  026%=      5-min Rain = 0
KST1 172220Z 23007KT 21/00 A3012 RMK A01 T02060001  RH  026%=      5-min Rain = 0
KST1 172225Z 24008KT 21/00 A3011 RMK A01 T02060002  RH  026%=      5-min Rain = 0
KST1 172230Z 24006KT 21/01 A3011 RMK A01 T02050006  RH  027%=      5-min Rain = 0
KST1 172235Z 23009KT 20/01 A3011 RMK A01 T02020008  RH  028%=      5-min Rain = 0
KST1 172240Z 24008KT 20/01 A3011 RMK A01 T02000008  RH  028%=      5-min Rain = 0
KST1 172245Z 24008KT 20/01 A3011 RMK A01 T01970007  RH  028%=      5-min Rain = 0
KST1 172250Z 24008KT 20/01 A3011 RMK A01 T01950012  RH  030%=      5-min Rain = 0
KST1 172255Z 21008KT 19/01 A3011 RMK A01 T01940013  RH  030%=      5-min Rain = 0
KST1 172300Z 22007KT 19/02 A3011 RMK A01 T01910016  RH  031%=      5-min Rain = 0
KST1 172305Z 22007KT 19/02 A3011 RMK A01 T01880017  RH  032%=      5-min Rain = 0
KST1 172310Z 21006KT 19/02 A3011 RMK A01 T01900017  RH  032%=      5-min Rain = 0
KST1 172315Z 21007KT 19/01 A3011 RMK A01 T01910013  RH  031%=      5-min Rain = 0
KST1 172320Z 21007KT 19/01 A3011 RMK A01 T01890011  RH  031%=      5-min Rain = 0
KST1 172325Z 20006KT 19/01 A3012 RMK A01 T01880011  RH  031%=      5-min Rain = 0
KST1 172330Z 20007KT 19/01 A3012 RMK A01 T01860007  RH  030%=      5-min Rain = 0
KST1 172335Z 19008KT 18/01 A3011 RMK A01 T01840007  RH  031%=      5-min Rain = 0
KST1 172340Z 20007KT 18/01 A3011 RMK A01 T01810008  RH  032%=      5-min Rain = 0
KST1 172345Z 20006KT 18/01 A3012 RMK A01 T01790009  RH  032%=      5-min Rain = 0
KST1 172350Z 20006KT 18/01 A3012 RMK A01 T01750010  RH  033%=      5-min Rain = 0
KST1 172355Z 20006KT 17/01 A3011 RMK A01 T01730011  RH  034%=      5-min Rain = 0
KST1 180000Z 20006KT 17/01 A3011 RMK A01 T01710012  RH  034%=      5-min Rain = 0
KST1 180005Z 19005KT 17/01 A3011 RMK A01 T01660013  RH  036%=      5-min Rain = 0
KST1 180010Z 19006KT 16/02 A3011 RMK A01 T01600016  RH  038%=      5-min Rain = 0
KST1 180015Z 20006KT 16/02 A3012 RMK A01 T01610022  RH  040%=      5-min Rain = 0
KST1 180020Z 20006KT 16/02 A3012 RMK A01 T01550021  RH  041%=      5-min Rain = 0
KST1 180025Z 20006KT 16/03 A3012 RMK A01 T01600025  RH  041%=      5-min Rain = 0
KST1 180030Z 20006KT 16/02 A3011 RMK A01 T01580024  RH  041%=      5-min Rain = 0
KST1 180035Z 20006KT 16/03 A3011 RMK A01 T01560025  RH  042%=      5-min Rain = 0
KST1 180040Z 20006KT 16/02 A3011 RMK A01 T01560024  RH  041%=      5-min Rain = 0
KST1 180045Z 19007KT 15/02 A3011 RMK A01 T01460021  RH  043%=      5-min Rain = 0
KST1 180050Z 19007KT 13/02 A3011 RMK A01 T01300021  RH  048%=      5-min Rain = 0
KST1 180055Z 19007KT 12/02 A3011 RMK A01 T01240021  RH  050%=      5-min Rain = 0
KST1 180100Z 19008KT 13/02 A3011 RMK A01 T01330023  RH  048%=      5-min Rain = 0
KST1 180105Z 19008KT 13/02 A3011 RMK A01 T01340021  RH  047%=      5-min Rain = 0
KST1 180110Z 19007KT 13/02 A3011 RMK A01 T01300021  RH  048%=      5-min Rain = 0
KST1 180115Z 18007KT 12/02 A3011 RMK A01 T01190019  RH  051%=      5-min Rain = 0
KST1 180120Z 18007KT 11/02 A3011 RMK A01 T01130017  RH  052%=      5-min Rain = 0
KST1 180125Z 18007KT 11/01 A3011 RMK A01 T01070013  RH  053%=      5-min Rain = 0
KST1 180130Z 18008KT 11/01 A3011 RMK A01 T01050011  RH  053%=      5-min Rain = 0
KST1 180135Z 18008KT 11/02 A3011 RMK A01 T01100015  RH  053%=      5-min Rain = 0
KST1 180140Z 18008KT 12/02 A3011 RMK A01 T01160017  RH  051%=      5-min Rain = 0
KST1 180145Z 18008KT 12/02 A301 RMK A01 T01150017  RH  052%=      5-min Rain = 0
KST1 180150Z 18008KT 11/02 A301 RMK A01 T01130016  RH  052%=      5-min Rain = 0
KST1 180155Z 18008KT 11/01 A301 RMK A01 T01060014  RH  053%=      5-min Rain = 0
KST1 180200Z 18008KT 10/01 A301 RMK A01 T01030014  RH  055%=      5-min Rain = 0
KST1 180205Z 18009KT 10/01 A301 RMK A01 T01010014  RH  055%=      5-min Rain = 0
KST1 180210Z 18010KT 09/01 A301 RMK A01 T00920012  RH  058%=      5-min Rain = 0
KST1 180215Z 17010KT 09/01 A301 RMK A01 T00930013  RH  058%=      5-min Rain = 0
KST1 180220Z 17008KT 10/02 A3009 RMK A01 T00990016  RH  057%=      5-min Rain = 0
KST1 180225Z 16007KT 10/01 A3009 RMK A01 T00990013  RH  056%=      5-min Rain = 0
KST1 180230Z 16007KT 09/01 A3009 RMK A01 T00890009  RH  058%=      5-min Rain = 0
KST1 180235Z 16008KT 08/01 A3009 RMK A01 T00830011  RH  061%=      5-min Rain = 0
KST1 180240Z 16008KT 09/02 A3009 RMK A01 T00890015  RH  060%=      5-min Rain = 0
KST1 180245Z 16009KT 10/02 A3009 RMK A01 T00950021  RH  061%=      5-min Rain = 0
KST1 180250Z 16009KT 10/02 A3009 RMK A01 T00990022  RH  060%=      5-min Rain = 0
KST1 180255Z 16009KT 10/02 A3009 RMK A01 T01010021  RH  058%=      5-min Rain = 0
KST1 180300Z 16008KT 10/02 A3009 RMK A01 T00990019  RH  058%=      5-min Rain = 0
KST1 180305Z 16008KT 10/02 A3008 RMK A01 T00950019  RH  060%=      5-min Rain = 0
KST1 180310Z 16007KT 09/02 A3008 RMK A01 T00930018  RH  060%=      5-min Rain = 0
KST1 180315Z 16007KT 09/02 A3008 RMK A01 T00860015  RH  061%=      5-min Rain = 0
KST1 180320Z 16006KT 08/01 A3008 RMK A01 T00790013  RH  064%=      5-min Rain = 0
KST1 180325Z 16005KT 08/01 A3008 RMK A01 T00750013  RH  065%=      5-min Rain = 0
KST1 180330Z 16006KT 08/01 A3008 RMK A01 T00750014  RH  066%=      5-min Rain = 0
KST1 180335Z 17006KT 07/01 A3008 RMK A01 T00740014  RH  067%=      5-min Rain = 0
KST1 180340Z 17007KT 08/02 A3008 RMK A01 T00770018  RH  067%=      5-min Rain = 0
KST1 180345Z 17007KT 07/02 A3008 RMK A01 T00740015  RH  067%=      5-min Rain = 0
KST1 180350Z 18006KT 07/02 A3008 RMK A01 T00740015  RH  067%=      5-min Rain = 0
KST1 180355Z 18007KT 07/01 A3008 RMK A01 T00730013  RH  067%=      5-min Rain = 0
KST1 180400Z 18007KT 08/02 A3008 RMK A01 T00750016  RH  067%=      5-min Rain = 0
KST1 180405Z 18005KT 08/02 A3008 RMK A01 T00830019  RH  065%=      5-min Rain = 0
KST1 180410Z 18005KT 09/02 A3008 RMK A01 T00850019  RH  064%=      5-min Rain = 0
KST1 180415Z 18005KT 08/02 A3008 RMK A01 T00830017  RH  064%=      5-min Rain = 0
KST1 180420Z 18006KT 08/01 A3008 RMK A01 T00780012  RH  064%=      5-min Rain = 0
KST1 180425Z 17005KT 07/01 A3008 RMK A01 T00710010  RH  066%=      5-min Rain = 0
KST1 180430Z 17005KT 07/01 A3008 RMK A01 T00670009  RH  067%=      5-min Rain = 0
KST1 180435Z 16004KT 06/01 A3008 RMK A01 T00620007  RH  069%=      5-min Rain = 0
KST1 180440Z 16004KT 07/01 A3008 RMK A01 T00660014  RH  070%=      5-min Rain = 0
KST1 180445Z 16005KT 07/02 A3008 RMK A01 T00680015  RH  070%=      5-min Rain = 0
KST1 180450Z 17005KT 06/01 A3008 RMK A01 T00580005  RH  070%=      5-min Rain = 0
KST1 180455Z 17006KT 05/01 A3008 RMK A01 T00540005  RH  071%=      5-min Rain = 0
KST1 180500Z 17006KT 06/01 A3008 RMK A01 T00550007  RH  072%=      5-min Rain = 0
KST1 180505Z 17006KT 06/01 A3008 RMK A01 T00580010  RH  072%=      5-min Rain = 0
KST1 180510Z 18007KT 06/01 A3008 RMK A01 T00640014  RH  071%=      5-min Rain = 0
KST1 180515Z 18007KT 07/02 A3008 RMK A01 T00700018  RH  070%=      5-min Rain = 0
KST1 180520Z 17007KT 07/02 A3008 RMK A01 T00700015  RH  069%=      5-min Rain = 0
KST1 180525Z 18007KT 07/02 A3007 RMK A01 T00690017  RH  070%=      5-min Rain = 0
KST1 180530Z 18007KT 07/02 A3007 RMK A01 T00660015  RH  071%=      5-min Rain = 0
KST1 180535Z 18007KT 07/02 A3007 RMK A01 T00670018  RH  071%=      5-min Rain = 0
KST1 180540Z 18008KT 07/02 A3007 RMK A01 T00710021  RH  071%=      5-min Rain = 0
KST1 180545Z 18008KT 07/02 A3007 RMK A01 T00730022  RH  071%=      5-min Rain = 0
KST1 180550Z 18008KT 08/02 A3007 RMK A01 T00750024  RH  071%=      5-min Rain = 0
KST1 180555Z 18008KT 08/03 A3007 RMK A01 T00770025  RH  071%=      5-min Rain = 0

Page generated in 0.0091 seconds.